气象报文与情报通波
气象报文机场: RCTP
ADDS - METARS form results

(1224 UTC 18 November 2019)
数据来源 http://aviationweather.gov/metar/data/
 
METAR text: RCTP 181220Z 06023G34KT 7000 -RA SCT006 BKN010 BKN016 18/17 Q1021 WS ALL RWY NOSIG RMK A3015
Conditions at: RCTP (TAIPEI TAOYUAN , TW) observed 1220 UTC 18 November 2019
Temperature: 18.0°C (64°F)
Dewpoint: 17.0°C (63°F) [RH = 94%]
Pressure (altimeter): 30.15 inches Hg (1021.0 mb)
Winds: from the ENE (60 degrees) at 26 MPH (23 knots; 11.8 m/s)
gusting to 39 MPH (34 knots; 17.5 m/s)
Visibility: 4 miles ( 7 km)
Ceiling: 1000 feet AGL
Clouds: scattered clouds at 600 feet AGL
broken clouds at 1000 feet AGL
broken clouds at 1600 feet AGL
Weather: -RA  (light rain)

METAR text: RCTP 181200Z 05022KT 5000 -RA SCT006 BKN010 BKN016 18/17 Q1020 NOSIG RMK A3014
Conditions at: RCTP (TAIPEI TAOYUAN , TW) observed 1200 UTC 18 November 2019
Temperature: 18.0°C (64°F)
Dewpoint: 17.0°C (63°F) [RH = 94%]
Pressure (altimeter): 30.12 inches Hg (1020.0 mb)
Winds: from the NE (50 degrees) at 25 MPH (22 knots; 11.3 m/s)
Visibility: 3 miles ( 5 km)
Ceiling: 1000 feet AGL
Clouds: scattered clouds at 600 feet AGL
broken clouds at 1000 feet AGL
broken clouds at 1600 feet AGL
Weather: -RA  (light rain)

METAR text: RCTP 181152Z 05022KT 5000 -RA SCT006 BKN010 BKN016 18/17 Q1020 NOSIG RMK A3014
Conditions at: RCTP (TAIPEI TAOYUAN , TW) observed 1152 UTC 18 November 2019
Temperature: 18.0°C (64°F)
Dewpoint: 17.0°C (63°F) [RH = 94%]
Pressure (altimeter): 30.12 inches Hg (1020.0 mb)
Winds: from the NE (50 degrees) at 25 MPH (22 knots; 11.3 m/s)
Visibility: 3 miles ( 5 km)
Ceiling: 1000 feet AGL
Clouds: scattered clouds at 600 feet AGL
broken clouds at 1000 feet AGL
broken clouds at 1600 feet AGL
Weather: -RA  (light rain)

METAR text: RCTP 181130Z 05023KT 8000 -RA SCT006 BKN009 BKN018 18/17 Q1020 NOSIG RMK A3013
Conditions at: RCTP (TAIPEI TAOYUAN , TW) observed 1130 UTC 18 November 2019
Temperature: 18.0°C (64°F)
Dewpoint: 17.0°C (63°F) [RH = 94%]
Pressure (altimeter): 30.12 inches Hg (1020.0 mb)
Winds: from the NE (50 degrees) at 26 MPH (23 knots; 11.8 m/s)
Visibility: 5 miles ( 8 km)
Ceiling: 900 feet AGL
Clouds: scattered clouds at 600 feet AGL
broken clouds at 900 feet AGL
broken clouds at 1800 feet AGL
Weather: -RA  (light rain)

Forecast for: RCTP (TAIPEI TAOYUAN , TW)
Text: TAF RCTP 181100Z 1812/1918 04020G30KT 8000 SCT007 BKN011 BKN030
Forecast period: 1200 UTC 18 November 2019 to 1800 UTC 19 November 2019
Forecast type: FROM: standard forecast or significant change
Winds: from the NE (40 degrees) at 23 MPH (20 knots; 10.3 m/s)
gusting to 34 MPH (30 knots; 15.4 m/s)
Visibility: 5 miles (8 km)
Ceiling: 1100 feet AGL
Clouds: scattered clouds at 700 feet AGL
broken clouds at 1100 feet AGL
broken clouds at 3000 feet AGL
Weather: no significant weather forecast for this period
Text: TEMPO 1812/1818 5000 RA SCT004 BKN007 BKN015
Forecast period: 1200 to 1800 UTC 18 November 2019
Forecast type: TEMPORARY: The following changes expected for less than half the time period
Visibility: 3 miles (5 km)
Ceiling: 700 feet AGL
Clouds: scattered clouds at 400 feet AGL
broken clouds at 700 feet AGL
broken clouds at 1500 feet AGL
Weather: RA  (moderate rain)
Text: TEMPO 1818/1824 5000 RA SCT005 BKN008 BKN020
Forecast period: 1800 UTC 18 November 2019 to 0000 UTC 19 November 2019
Forecast type: TEMPORARY: The following changes expected for less than half the time period
Visibility: 3 miles (5 km)
Ceiling: 800 feet AGL
Clouds: scattered clouds at 500 feet AGL
broken clouds at 800 feet AGL
broken clouds at 2000 feet AGL
Weather: RA  (moderate rain)
Text: TEMPO 1900/1906 05025G35KT SCT010 BKN016 BKN040
Forecast period: 0000 to 0600 UTC 19 November 2019
Forecast type: TEMPORARY: The following changes expected for less than half the time period
Winds: from the NE (50 degrees) at 29 MPH (25 knots; 12.9 m/s)
gusting to 40 MPH (35 knots; 18.0 m/s)
Visibility: missing
Ceiling: 1600 feet AGL
Clouds: scattered clouds at 1000 feet AGL
broken clouds at 1600 feet AGL
broken clouds at 4000 feet AGL
Weather: no significant weather forecast for this period
Text: TEMPO 1906/1912 05025G35KT SCT010 BKN016 BKN040
Forecast period: 0600 to 1200 UTC 19 November 2019
Forecast type: TEMPORARY: The following changes expected for less than half the time period
Winds: from the NE (50 degrees) at 29 MPH (25 knots; 12.9 m/s)
gusting to 40 MPH (35 knots; 18.0 m/s)
Visibility: missing
Ceiling: 1600 feet AGL
Clouds: scattered clouds at 1000 feet AGL
broken clouds at 1600 feet AGL
broken clouds at 4000 feet AGL
Weather: no significant weather forecast for this period

 机场地图

 跑道信息
跑道 05 跑道长度 12008 ft 跑道宽度 197 ft
跑道标高 73 ft 跑道內移距离 0 ft 跑道磁航向 49
跑道 23 跑道长度 12008 ft 跑道宽度 197 ft
跑道标高 62 ft 跑道內移距离 0 ft 跑道磁航向 229
跑道 06 跑道长度 10991 ft 跑道宽度 197 ft
跑道标高 106 ft 跑道內移距离 0 ft 跑道磁航向 49
跑道 24 跑道长度 10991 ft 跑道宽度 197 ft
跑道标高 95 ft 跑道內移距离 0 ft 跑道磁航向 229

 机场频率
类型 APP 名称 TAIPEI APP 频率 119.6 MHZ
类型 APP 名称 TAIPEI APP 频率 123.5 MHZ
类型 ATIS 名称 ATIS 频率 127.6 MHZ
类型 CLD 名称 CLNC DEL 频率 121.8 MHZ
类型 GND 名称 GND 频率 121.7 MHZ
类型 TWR 名称 TAIPEI TWR 频率 118.7 MHZ

 机场附近导航设备
类型 VOR-DME 名称 Chiang Kai Shek 频率 114300 KHZ



© FlySim.cn中国最大航空飞行视频网版权所有